D/T METAR WX W/DIR W/SPE G/SPE TEMP DEWP
9/04/20 01:20 EGGD 090020Z AUTO 07006KT 9999 NCD 11/07 Q1023 ENE (70°) 6.9mph 11°C 7°C
9/04/20 00:50 EGGD 082350Z AUTO 05006KT 9999 NCD 14/08 Q1023 NE (50°) 6.9mph 14°C 8°C
9/04/20 00:20 EGGD 082320Z AUTO 05006KT 9999 NCD 14/08 Q1024 NE (50°) 6.9mph 14°C 8°C
8/04/20 23:50 EGGD 082250Z AUTO 05006KT 9999 NCD 14/08 Q1024 NE (50°) 6.9mph 14°C 8°C
8/04/20 23:20 EGGD 082220Z AUTO 07005KT 9999 NCD 13/08 Q1024 ENE (70°) 5.8mph 13°C 8°C
8/04/20 22:50 EGGD 082150Z AUTO 07005KT 9999 SCT049 14/08 Q1024 ENE (70°) 5.8mph 14°C 8°C
8/04/20 22:20 EGGD 082120Z AUTO 08005KT 9999 FEW049 14/08 Q1024 E (80°) 5.8mph 14°C 8°C
8/04/20 21:50 EGGD 082050Z AUTO 03005KT 9999 NCD 16/08 Q1024 NNE (30°) 5.8mph 16°C 8°C
8/04/20 21:20 EGGD 082020Z AUTO 03005KT 9999 NCD 16/08 Q1023 NNE (30°) 5.8mph 16°C 8°C
8/04/20 20:50 EGGD 081950Z AUTO 02004KT 9999 NCD 16/08 Q1023 NNE (20°) 4.6mph 16°C 8°C
8/04/20 20:20 EGGD 081920Z AUTO 36003KT 9999 NCD 17/08 Q1023 N (360°) 3.5mph 17°C 8°C
8/04/20 19:50 EGGD 081850Z AUTO 33003KT 9999 NCD 16/08 Q1023 NNW (330°) 3.5mph 16°C 8°C
8/04/20 19:20 EGGD 081820Z AUTO 34004KT 9999 NCD 17/09 Q1023 NNW (340°) 4.6mph 17°C 9°C
8/04/20 18:50 EGGD 081750Z AUTO VRB03KT 9999 NCD 19/09 Q1023 N (0°) 3.5mph 19°C 9°C
8/04/20 18:20 EGGD 081720Z AUTO VRB03KT 9999 NCD 19/09 Q1023 N (0°) 3.5mph 19°C 9°C
8/04/20 17:50 EGGD 081650Z AUTO 10004KT 070V140 9999 NCD 19/09 Q1023 E (100°) 4.6mph 19°C 9°C
8/04/20 17:20 EGGD 081620Z AUTO VRB01KT 9999 NCD 20/09 Q1023 N (0°) 1.2mph 20°C 9°C
8/04/20 16:50 EGGD 081550Z AUTO 10005KT 050V150 9999 NCD 20/09 Q1023 E (100°) 5.8mph 20°C 9°C
8/04/20 16:20 EGGD 081520Z AUTO VRB03KT 9999 NCD 20/09 Q1023 N (0°) 3.5mph 20°C 9°C
8/04/20 15:50 EGGD 081450Z AUTO VRB02KT 9999 NCD 19/09 Q1023 N (0°) 2.3mph 19°C 9°C
8/04/20 15:20 EGGD 081420Z AUTO VRB03KT 9999 NCD 19/09 Q1024 N (0°) 3.5mph 19°C 9°C
8/04/20 14:20 EGGD 081320Z AUTO 06006KT 340V100 9999 NCD 19/09 Q1024 ENE (60°) 6.9mph 19°C 9°C
8/04/20 13:50 EGGD 081250Z AUTO 04007KT 010V090 9999 NCD 18/08 Q1024 NE (40°) 8.1mph 18°C 8°C
8/04/20 13:20 EGGD 081220Z AUTO 05007KT 9999 NCD 18/07 Q1024 NE (50°) 8.1mph 18°C 7°C
8/04/20 12:20 EGGD 081120Z AUTO 05005KT 010V090 9999 NCD 16/06 Q1025 NE (50°) 5.8mph 16°C 6°C
8/04/20 11:50 EGGD 081050Z AUTO 05007KT 9999 NCD 16/06 Q1025 NE (50°) 8.1mph 16°C 6°C
8/04/20 11:20 EGGD 081020Z AUTO 05007KT 9999 NCD 15/06 Q1025 NE (50°) 8.1mph 15°C 6°C
8/04/20 10:50 EGGD 080950Z AUTO 08008KT 9999 NCD 15/07 Q1025 E (80°) 9.2mph 15°C 7°C
8/04/20 10:20 EGGD 080920Z AUTO 06008KT 9999 NCD 14/06 Q1025 ENE (60°) 9.2mph 14°C 6°C
8/04/20 09:50 EGGD 080850Z AUTO 07006KT 9999 NCD 13/05 Q1025 ENE (70°) 6.9mph 13°C 5°C
8/04/20 09:20 EGGD 080820Z AUTO 07007KT 9999 NCD 12/05 Q1025 ENE (70°) 8.1mph 12°C 5°C
8/04/20 08:50 EGGD 080750Z AUTO 06005KT 9999 NCD 12/04 Q1025 ENE (60°) 5.8mph 12°C 4°C
8/04/20 08:20 EGGD 080720Z AUTO 06008KT 9999 NCD 12/04 Q1025 ENE (60°) 9.2mph 12°C 4°C
8/04/20 07:50 EGGD 080650Z AUTO 07008KT 9999 NCD 11/05 Q1025 ENE (70°) 9.2mph 11°C 5°C
8/04/20 07:20 EGGD 080620Z AUTO 07006KT 9999 NCD 10/05 Q1025 ENE (70°) 6.9mph 10°C 5°C
8/04/20 06:50 EGGD 080550Z AUTO 06005KT 9999 NCD 11/04 Q1025 ENE (60°) 5.8mph 11°C 4°C
8/04/20 06:20 EGGD 080520Z AUTO 06004KT 9999 NCD 11/04 Q1025 ENE (60°) 4.6mph 11°C 4°C
8/04/20 05:20 EGGD 080420Z AUTO VRB03KT 9999 NCD 11/03 Q1025 N (0°) 3.5mph 11°C 3°C
8/04/20 04:50 EGGD 080350Z AUTO 10007KT 9999 NCD 11/03 Q1025 E (100°) 8.1mph 11°C 3°C
8/04/20 04:20 EGGD 080320Z AUTO 09007KT 9999 NCD 10/04 Q1025 E (90°) 8.1mph 10°C 4°C
8/04/20 03:50 EGGD 080250Z AUTO 09006KT 9999 NCD 10/04 Q1025 E (90°) 6.9mph 10°C 4°C
8/04/20 03:20 EGGD 080220Z AUTO 07006KT 9999 NCD 10/04 Q1025 ENE (70°) 6.9mph 10°C 4°C
8/04/20 02:50 EGGD 080150Z AUTO 07006KT 9999 NCD 10/04 Q1026 ENE (70°) 6.9mph 10°C 4°C
8/04/20 02:20 EGGD 080120Z AUTO 07005KT 9999 NCD 09/03 Q1026 ENE (70°) 5.8mph 9°C 3°C
8/04/20 01:50 EGGD 080050Z AUTO 07006KT 9999 NCD 09/02 Q1026 ENE (70°) 6.9mph 9°C 2°C
8/04/20 01:20 EGGD 080020Z AUTO 08005KT 9999 NCD 09/02 Q1026 E (80°) 5.8mph 9°C 2°C
8/04/20 00:20 EGGD 072320Z AUTO 09004KT 9999 NCD 11/04 Q1027 E (90°) 4.6mph 11°C 4°C
7/04/20 23:50 EGGD 072250Z AUTO 09002KT 9999 NCD 11/04 Q1027 E (90°) 2.3mph 11°C 4°C